sensor_id;sensor_type;location;lat;lon;timestamp;temperature;humidity
5775;DHT22;2913;51.120;6.772;2022-10-16T00:00:45;14.30;99.90
5775;DHT22;2913;51.120;6.772;2022-10-16T00:03:11;14.20;99.90
5775;DHT22;2913;51.120;6.772;2022-10-16T00:05:46;14.20;99.90
5775;DHT22;2913;51.120;6.772;2022-10-16T00:08:12;14.10;99.90
5775;DHT22;2913;51.120;6.772;2022-10-16T00:10:38;14.10;99.90
5775;DHT22;2913;51.120;6.772;2022-10-16T00:13:07;14.10;99.90
5775;DHT22;2913;51.120;6.772;2022-10-16T00:15:36;14.10;99.90
5775;DHT22;2913;51.120;6.772;2022-10-16T00:18:06;14.00;99.90
5775;DHT22;2913;51.120;6.772;2022-10-16T00:20:34;14.00;99.90
5775;DHT22;2913;51.120;6.772;2022-10-16T00:23:00;14.00;99.90
5775;DHT22;2913;51.120;6.772;2022-10-16T00:25:26;14.00;99.90
5775;DHT22;2913;51.120;6.772;2022-10-16T00:27:51;14.00;99.90
5775;DHT22;2913;51.120;6.772;2022-10-16T00:30:17;14.00;99.90
5775;DHT22;2913;51.120;6.772;2022-10-16T00:32:42;14.00;99.90
5775;DHT22;2913;51.120;6.772;2022-10-16T00:35:11;14.00;99.90
5775;DHT22;2913;51.120;6.772;2022-10-16T00:37:37;14.00;99.90
5775;DHT22;2913;51.120;6.772;2022-10-16T00:40:02;13.90;99.90
5775;DHT22;2913;51.120;6.772;2022-10-16T00:42:28;14.00;99.90
5775;DHT22;2913;51.120;6.772;2022-10-16T00:44:56;13.90;99.90
5775;DHT22;2913;51.120;6.772;2022-10-16T00:47:38;13.90;99.90
5775;DHT22;2913;51.120;6.772;2022-10-16T00:50:22;13.90;99.90
5775;DHT22;2913;51.120;6.772;2022-10-16T00:52:50;13.90;99.90
5775;DHT22;2913;51.120;6.772;2022-10-16T00:55:17;13.80;99.90
5775;DHT22;2913;51.120;6.772;2022-10-16T00:57:44;13.70;99.90
5775;DHT22;2913;51.120;6.772;2022-10-16T01:00:13;13.70;99.90
5775;DHT22;2913;51.120;6.772;2022-10-16T01:02:39;13.80;99.90
5775;DHT22;2913;51.120;6.772;2022-10-16T01:05:05;13.80;99.90
5775;DHT22;2913;51.120;6.772;2022-10-16T01:10:42;13.80;99.90
5775;DHT22;2913;51.120;6.772;2022-10-16T01:13:51;13.80;99.90
5775;DHT22;2913;51.120;6.772;2022-10-16T01:16:39;13.80;99.90
5775;DHT22;2913;51.120;6.772;2022-10-16T01:22:12;13.80;99.90
5775;DHT22;2913;51.120;6.772;2022-10-16T01:24:43;13.80;99.90
5775;DHT22;2913;51.120;6.772;2022-10-16T01:27:13;13.80;99.90
5775;DHT22;2913;51.120;6.772;2022-10-16T01:32:42;13.70;99.90
5775;DHT22;2913;51.120;6.772;2022-10-16T01:35:14;13.70;99.90
5775;DHT22;2913;51.120;6.772;2022-10-16T01:40:16;13.80;99.90
5775;DHT22;2913;51.120;6.772;2022-10-16T01:42:54;13.80;99.90
5775;DHT22;2913;51.120;6.772;2022-10-16T01:45:21;13.80;99.90
5775;DHT22;2913;51.120;6.772;2022-10-16T01:47:48;13.80;99.90
5775;DHT22;2913;51.120;6.772;2022-10-16T01:50:18;13.80;99.90
5775;DHT22;2913;51.120;6.772;2022-10-16T01:52:50;13.80;99.90
5775;DHT22;2913;51.120;6.772;2022-10-16T01:55:24;13.80;99.90
5775;DHT22;2913;51.120;6.772;2022-10-16T01:57:51;13.80;99.90
5775;DHT22;2913;51.120;6.772;2022-10-16T02:00:22;13.80;99.90
5775;DHT22;2913;51.120;6.772;2022-10-16T02:02:51;13.80;99.90
5775;DHT22;2913;51.120;6.772;2022-10-16T02:05:32;13.80;99.90
5775;DHT22;2913;51.120;6.772;2022-10-16T02:07:59;13.90;99.90
5775;DHT22;2913;51.120;6.772;2022-10-16T02:10:25;13.90;99.90
5775;DHT22;2913;51.120;6.772;2022-10-16T02:13:03;13.90;99.90
5775;DHT22;2913;51.120;6.772;2022-10-16T02:15:32;13.90;99.90
5775;DHT22;2913;51.120;6.772;2022-10-16T02:17:57;14.00;99.90
5775;DHT22;2913;51.120;6.772;2022-10-16T02:20:28;14.00;99.90
5775;DHT22;2913;51.120;6.772;2022-10-16T02:22:58;14.00;99.90
5775;DHT22;2913;51.120;6.772;2022-10-16T02:28:16;14.00;99.90
5775;DHT22;2913;51.120;6.772;2022-10-16T02:33:10;14.00;99.90
5775;DHT22;2913;51.120;6.772;2022-10-16T02:35:37;14.00;99.90
5775;DHT22;2913;51.120;6.772;2022-10-16T02:38:06;14.00;99.90
5775;DHT22;2913;51.120;6.772;2022-10-16T02:40:33;14.00;99.90
5775;DHT22;2913;51.120;6.772;2022-10-16T02:42:59;14.00;99.90
5775;DHT22;2913;51.120;6.772;2022-10-16T02:45:26;14.10;99.90
5775;DHT22;2913;51.120;6.772;2022-10-16T02:47:54;14.10;99.90
5775;DHT22;2913;51.120;6.772;2022-10-16T02:50:20;14.10;99.90
5775;DHT22;2913;51.120;6.772;2022-10-16T02:52:46;14.10;99.90
5775;DHT22;2913;51.120;6.772;2022-10-16T02:55:11;14.10;99.90
5775;DHT22;2913;51.120;6.772;2022-10-16T02:57:37;14.10;99.90
5775;DHT22;2913;51.120;6.772;2022-10-16T03:00:05;14.10;99.90
5775;DHT22;2913;51.120;6.772;2022-10-16T03:02:30;14.10;99.90
5775;DHT22;2913;51.120;6.772;2022-10-16T03:04:56;14.10;99.90
5775;DHT22;2913;51.120;6.772;2022-10-16T03:07:21;14.10;99.90
5775;DHT22;2913;51.120;6.772;2022-10-16T03:09:50;14.00;99.90
5775;DHT22;2913;51.120;6.772;2022-10-16T03:12:18;14.00;99.90
5775;DHT22;2913;51.120;6.772;2022-10-16T03:14:43;14.00;99.90
5775;DHT22;2913;51.120;6.772;2022-10-16T03:17:09;14.00;99.90
5775;DHT22;2913;51.120;6.772;2022-10-16T03:19:40;14.00;99.90
5775;DHT22;2913;51.120;6.772;2022-10-16T03:22:06;14.00;99.90
5775;DHT22;2913;51.120;6.772;2022-10-16T03:24:34;14.00;99.90
5775;DHT22;2913;51.120;6.772;2022-10-16T03:27:04;13.90;99.90
5775;DHT22;2913;51.120;6.772;2022-10-16T03:29:30;13.90;99.90
5775;DHT22;2913;51.120;6.772;2022-10-16T03:31:57;13.90;99.90
5775;DHT22;2913;51.120;6.772;2022-10-16T03:34:23;13.90;99.90
5775;DHT22;2913;51.120;6.772;2022-10-16T03:36:51;13.80;99.90
5775;DHT22;2913;51.120;6.772;2022-10-16T03:39:21;13.80;99.90
5775;DHT22;2913;51.120;6.772;2022-10-16T03:41:47;13.80;99.90
5775;DHT22;2913;51.120;6.772;2022-10-16T03:44:13;13.80;99.90
5775;DHT22;2913;51.120;6.772;2022-10-16T03:46:39;13.80;99.90
5775;DHT22;2913;51.120;6.772;2022-10-16T03:49:07;13.80;99.90
5775;DHT22;2913;51.120;6.772;2022-10-16T03:51:33;13.70;99.90
5775;DHT22;2913;51.120;6.772;2022-10-16T03:53:58;13.70;99.90
5775;DHT22;2913;51.120;6.772;2022-10-16T03:56:26;13.70;99.90
5775;DHT22;2913;51.120;6.772;2022-10-16T03:58:52;13.60;99.90
5775;DHT22;2913;51.120;6.772;2022-10-16T04:01:20;13.60;99.90
5775;DHT22;2913;51.120;6.772;2022-10-16T04:03:45;13.60;99.90
5775;DHT22;2913;51.120;6.772;2022-10-16T04:06:11;13.60;99.90
5775;DHT22;2913;51.120;6.772;2022-10-16T04:08:37;13.50;99.90
5775;DHT22;2913;51.120;6.772;2022-10-16T04:11:07;13.50;99.90
5775;DHT22;2913;51.120;6.772;2022-10-16T04:13:33;13.50;99.90
5775;DHT22;2913;51.120;6.772;2022-10-16T04:15:58;13.50;99.90
5775;DHT22;2913;51.120;6.772;2022-10-16T04:18:24;13.50;99.90
5775;DHT22;2913;51.120;6.772;2022-10-16T04:20:52;13.50;99.90
5775;DHT22;2913;51.120;6.772;2022-10-16T04:23:18;13.50;99.90
5775;DHT22;2913;51.120;6.772;2022-10-16T04:25:44;13.50;99.90
5775;DHT22;2913;51.120;6.772;2022-10-16T04:28:12;13.50;99.90
5775;DHT22;2913;51.120;6.772;2022-10-16T04:30:38;13.40;99.90
5775;DHT22;2913;51.120;6.772;2022-10-16T04:33:04;13.50;99.90
5775;DHT22;2913;51.120;6.772;2022-10-16T04:35:32;13.50;99.90
5775;DHT22;2913;51.120;6.772;2022-10-16T04:38:00;13.50;99.90
5775;DHT22;2913;51.120;6.772;2022-10-16T04:40:28;13.50;99.90
5775;DHT22;2913;51.120;6.772;2022-10-16T04:42:54;13.50;99.90
5775;DHT22;2913;51.120;6.772;2022-10-16T04:45:20;13.50;99.90
5775;DHT22;2913;51.120;6.772;2022-10-16T04:47:47;13.50;99.90
5775;DHT22;2913;51.120;6.772;2022-10-16T04:50:13;13.50;99.90
5775;DHT22;2913;51.120;6.772;2022-10-16T04:52:39;13.50;99.90
5775;DHT22;2913;51.120;6.772;2022-10-16T04:55:07;13.50;99.90
5775;DHT22;2913;51.120;6.772;2022-10-16T04:57:33;13.40;99.90
5775;DHT22;2913;51.120;6.772;2022-10-16T04:59:59;13.40;99.90
5775;DHT22;2913;51.120;6.772;2022-10-16T05:02:25;13.40;99.90
5775;DHT22;2913;51.120;6.772;2022-10-16T05:04:53;13.40;99.90
5775;DHT22;2913;51.120;6.772;2022-10-16T05:07:18;13.40;99.90
5775;DHT22;2913;51.120;6.772;2022-10-16T05:09:47;13.30;99.90
5775;DHT22;2913;51.120;6.772;2022-10-16T05:12:15;13.30;99.90
5775;DHT22;2913;51.120;6.772;2022-10-16T05:14:40;13.30;99.90
5775;DHT22;2913;51.120;6.772;2022-10-16T05:17:06;13.30;99.90
5775;DHT22;2913;51.120;6.772;2022-10-16T05:19:31;13.30;99.90
5775;DHT22;2913;51.120;6.772;2022-10-16T05:21:57;13.30;99.90
5775;DHT22;2913;51.120;6.772;2022-10-16T05:24:23;13.30;99.90
5775;DHT22;2913;51.120;6.772;2022-10-16T05:26:49;13.20;99.90
5775;DHT22;2913;51.120;6.772;2022-10-16T05:29:15;13.20;99.90
5775;DHT22;2913;51.120;6.772;2022-10-16T05:31:43;13.30;99.90
5775;DHT22;2913;51.120;6.772;2022-10-16T05:34:11;13.30;99.90
5775;DHT22;2913;51.120;6.772;2022-10-16T05:36:39;13.30;99.90
5775;DHT22;2913;51.120;6.772;2022-10-16T05:39:05;13.30;99.90
5775;DHT22;2913;51.120;6.772;2022-10-16T05:41:32;13.20;99.90
5775;DHT22;2913;51.120;6.772;2022-10-16T05:43:58;13.30;99.90
5775;DHT22;2913;51.120;6.772;2022-10-16T05:46:23;13.30;99.90
5775;DHT22;2913;51.120;6.772;2022-10-16T05:48:52;13.30;99.90
5775;DHT22;2913;51.120;6.772;2022-10-16T05:51:18;13.30;99.90
5775;DHT22;2913;51.120;6.772;2022-10-16T05:53:44;13.30;99.90
5775;DHT22;2913;51.120;6.772;2022-10-16T05:56:10;13.30;99.90
5775;DHT22;2913;51.120;6.772;2022-10-16T05:58:38;13.30;99.90
5775;DHT22;2913;51.120;6.772;2022-10-16T06:01:25;13.30;99.90
5775;DHT22;2913;51.120;6.772;2022-10-16T06:03:51;13.30;99.90
5775;DHT22;2913;51.120;6.772;2022-10-16T06:06:20;13.30;99.90
5775;DHT22;2913;51.120;6.772;2022-10-16T06:08:47;13.30;99.90
5775;DHT22;2913;51.120;6.772;2022-10-16T06:11:16;13.30;99.90
5775;DHT22;2913;51.120;6.772;2022-10-16T06:13:48;13.40;99.90
5775;DHT22;2913;51.120;6.772;2022-10-16T06:16:16;13.40;99.90
5775;DHT22;2913;51.120;6.772;2022-10-16T06:18:46;13.40;99.90
5775;DHT22;2913;51.120;6.772;2022-10-16T06:21:24;13.40;99.90
5775;DHT22;2913;51.120;6.772;2022-10-16T06:23:50;13.40;99.90
5775;DHT22;2913;51.120;6.772;2022-10-16T06:26:18;13.40;99.90
5775;DHT22;2913;51.120;6.772;2022-10-16T06:28:47;13.50;99.90
5775;DHT22;2913;51.120;6.772;2022-10-16T06:31:14;13.50;99.90
5775;DHT22;2913;51.120;6.772;2022-10-16T06:33:40;13.50;99.90
5775;DHT22;2913;51.120;6.772;2022-10-16T06:36:10;13.50;99.90
5775;DHT22;2913;51.120;6.772;2022-10-16T06:38:39;13.50;99.90
5775;DHT22;2913;51.120;6.772;2022-10-16T06:41:09;13.60;99.90
5775;DHT22;2913;51.120;6.772;2022-10-16T06:43:35;13.70;99.90
5775;DHT22;2913;51.120;6.772;2022-10-16T06:46:04;13.70;99.90
5775;DHT22;2913;51.120;6.772;2022-10-16T06:48:30;13.80;99.90
5775;DHT22;2913;51.120;6.772;2022-10-16T06:53:27;13.90;99.90
5775;DHT22;2913;51.120;6.772;2022-10-16T06:55:53;14.00;99.90
5775;DHT22;2913;51.120;6.772;2022-10-16T06:58:19;14.10;99.90
5775;DHT22;2913;51.120;6.772;2022-10-16T07:00:44;14.20;99.90
5775;DHT22;2913;51.120;6.772;2022-10-16T07:03:10;14.20;99.90
5775;DHT22;2913;51.120;6.772;2022-10-16T07:05:38;14.30;99.90
5775;DHT22;2913;51.120;6.772;2022-10-16T07:08:04;14.30;99.90
5775;DHT22;2913;51.120;6.772;2022-10-16T07:10:31;14.20;99.90
5775;DHT22;2913;51.120;6.772;2022-10-16T07:12:56;14.20;99.90
5775;DHT22;2913;51.120;6.772;2022-10-16T07:15:22;14.30;99.90
5775;DHT22;2913;51.120;6.772;2022-10-16T07:17:48;14.30;99.90
5775;DHT22;2913;51.120;6.772;2022-10-16T07:20:16;14.30;99.90
5775;DHT22;2913;51.120;6.772;2022-10-16T07:22:41;14.20;99.90
5775;DHT22;2913;51.120;6.772;2022-10-16T07:25:07;14.20;99.90
5775;DHT22;2913;51.120;6.772;2022-10-16T07:27:36;14.30;99.90
5775;DHT22;2913;51.120;6.772;2022-10-16T07:30:05;14.30;99.90
5775;DHT22;2913;51.120;6.772;2022-10-16T07:32:31;14.50;99.90
5775;DHT22;2913;51.120;6.772;2022-10-16T07:34:57;14.40;99.90
5775;DHT22;2913;51.120;6.772;2022-10-16T07:37:22;14.60;99.90
5775;DHT22;2913;51.120;6.772;2022-10-16T07:39:50;14.50;99.90
5775;DHT22;2913;51.120;6.772;2022-10-16T07:42:16;14.50;99.90
5775;DHT22;2913;51.120;6.772;2022-10-16T07:44:41;14.50;99.90
5775;DHT22;2913;51.120;6.772;2022-10-16T07:47:07;14.50;99.90
5775;DHT22;2913;51.120;6.772;2022-10-16T07:49:33;14.60;99.90
5775;DHT22;2913;51.120;6.772;2022-10-16T07:51:58;14.80;99.90
5775;DHT22;2913;51.120;6.772;2022-10-16T07:54:24;15.00;99.90
5775;DHT22;2913;51.120;6.772;2022-10-16T07:56:50;15.20;99.90
5775;DHT22;2913;51.120;6.772;2022-10-16T07:59:15;15.30;99.90
5775;DHT22;2913;51.120;6.772;2022-10-16T08:01:43;15.50;99.90
5775;DHT22;2913;51.120;6.772;2022-10-16T08:04:09;15.60;99.90
5775;DHT22;2913;51.120;6.772;2022-10-16T08:06:39;15.70;99.90
5775;DHT22;2913;51.120;6.772;2022-10-16T08:09:08;15.80;99.90
5775;DHT22;2913;51.120;6.772;2022-10-16T08:11:34;15.90;99.90
5775;DHT22;2913;51.120;6.772;2022-10-16T08:14:00;16.00;99.90
5775;DHT22;2913;51.120;6.772;2022-10-16T08:16:28;16.10;99.90
5775;DHT22;2913;51.120;6.772;2022-10-16T08:18:56;16.10;99.90
5775;DHT22;2913;51.120;6.772;2022-10-16T08:21:22;16.20;99.90
5775;DHT22;2913;51.120;6.772;2022-10-16T08:23:52;16.30;99.90
5775;DHT22;2913;51.120;6.772;2022-10-16T08:26:18;16.40;99.90
5775;DHT22;2913;51.120;6.772;2022-10-16T08:28:44;16.40;99.90
5775;DHT22;2913;51.120;6.772;2022-10-16T08:31:14;16.50;99.90
5775;DHT22;2913;51.120;6.772;2022-10-16T08:33:41;16.50;99.90
5775;DHT22;2913;51.120;6.772;2022-10-16T08:36:12;16.60;99.90
5775;DHT22;2913;51.120;6.772;2022-10-16T08:38:38;16.70;99.90
5775;DHT22;2913;51.120;6.772;2022-10-16T08:44:00;16.90;99.90
5775;DHT22;2913;51.120;6.772;2022-10-16T08:46:53;17.00;99.90
5775;DHT22;2913;51.120;6.772;2022-10-16T08:49:26;17.00;99.90
5775;DHT22;2913;51.120;6.772;2022-10-16T08:51:52;17.00;99.90
5775;DHT22;2913;51.120;6.772;2022-10-16T08:54:34;17.10;99.90
5775;DHT22;2913;51.120;6.772;2022-10-16T08:57:20;17.10;99.90
5775;DHT22;2913;51.120;6.772;2022-10-16T08:59:48;17.20;99.90
5775;DHT22;2913;51.120;6.772;2022-10-16T09:02:37;17.30;99.90
5775;DHT22;2913;51.120;6.772;2022-10-16T09:05:25;17.30;99.90
5775;DHT22;2913;51.120;6.772;2022-10-16T09:07:59;17.40;99.90
5775;DHT22;2913;51.120;6.772;2022-10-16T09:10:56;17.50;99.90
5775;DHT22;2913;51.120;6.772;2022-10-16T09:16:28;17.60;99.90
5775;DHT22;2913;51.120;6.772;2022-10-16T09:21:46;17.70;99.90
5775;DHT22;2913;51.120;6.772;2022-10-16T09:24:19;17.70;99.90
5775;DHT22;2913;51.120;6.772;2022-10-16T09:26:45;17.90;99.90
5775;DHT22;2913;51.120;6.772;2022-10-16T09:29:15;18.00;99.90
5775;DHT22;2913;51.120;6.772;2022-10-16T09:31:42;17.90;99.90
5775;DHT22;2913;51.120;6.772;2022-10-16T09:36:52;18.20;99.90
5775;DHT22;2913;51.120;6.772;2022-10-16T09:39:17;18.20;99.90
5775;DHT22;2913;51.120;6.772;2022-10-16T09:41:44;18.20;99.90
5775;DHT22;2913;51.120;6.772;2022-10-16T09:46:45;18.40;99.90
5775;DHT22;2913;51.120;6.772;2022-10-16T09:49:26;18.40;99.90
5775;DHT22;2913;51.120;6.772;2022-10-16T09:52:13;18.40;99.90
5775;DHT22;2913;51.120;6.772;2022-10-16T09:54:49;18.50;99.90
5775;DHT22;2913;51.120;6.772;2022-10-16T09:57:15;18.60;99.90
5775;DHT22;2913;51.120;6.772;2022-10-16T09:59:48;18.70;99.90
5775;DHT22;2913;51.120;6.772;2022-10-16T10:02:17;18.60;99.90
5775;DHT22;2913;51.120;6.772;2022-10-16T10:04:53;18.70;99.90
5775;DHT22;2913;51.120;6.772;2022-10-16T10:07:43;18.70;99.90
5775;DHT22;2913;51.120;6.772;2022-10-16T10:10:24;18.80;99.90
5775;DHT22;2913;51.120;6.772;2022-10-16T10:12:50;18.80;99.90
5775;DHT22;2913;51.120;6.772;2022-10-16T10:15:16;18.90;99.90
5775;DHT22;2913;51.120;6.772;2022-10-16T10:17:52;19.00;99.90
5775;DHT22;2913;51.120;6.772;2022-10-16T10:20:31;19.00;99.90
5775;DHT22;2913;51.120;6.772;2022-10-16T10:23:00;18.90;99.90
5775;DHT22;2913;51.120;6.772;2022-10-16T10:33:40;18.70;99.90
5775;DHT22;2913;51.120;6.772;2022-10-16T10:39:08;18.80;99.90
5775;DHT22;2913;51.120;6.772;2022-10-16T10:46:51;19.20;99.90
5775;DHT22;2913;51.120;6.772;2022-10-16T10:52:48;19.40;99.90
5775;DHT22;2913;51.120;6.772;2022-10-16T10:55:23;19.50;99.90
5775;DHT22;2913;51.120;6.772;2022-10-16T11:06:32;19.40;99.90
5775;DHT22;2913;51.120;6.772;2022-10-16T11:11:38;19.50;99.90
5775;DHT22;2913;51.120;6.772;2022-10-16T11:14:29;19.50;99.90
5775;DHT22;2913;51.120;6.772;2022-10-16T11:19:46;19.50;99.90
5775;DHT22;2913;51.120;6.772;2022-10-16T11:22:22;19.70;99.90
5775;DHT22;2913;51.120;6.772;2022-10-16T11:25:13;19.70;99.90
5775;DHT22;2913;51.120;6.772;2022-10-16T11:28:32;19.70;99.90
5775;DHT22;2913;51.120;6.772;2022-10-16T11:36:39;19.90;99.90
5775;DHT22;2913;51.120;6.772;2022-10-16T11:39:31;19.90;99.90
5775;DHT22;2913;51.120;6.772;2022-10-16T11:42:05;19.90;99.90
5775;DHT22;2913;51.120;6.772;2022-10-16T11:49:57;20.20;99.90
5775;DHT22;2913;51.120;6.772;2022-10-16T11:52:40;20.20;99.90
5775;DHT22;2913;51.120;6.772;2022-10-16T11:55:49;20.10;99.90
5775;DHT22;2913;51.120;6.772;2022-10-16T11:58:22;20.10;99.90
5775;DHT22;2913;51.120;6.772;2022-10-16T12:08:56;20.60;99.90
5775;DHT22;2913;51.120;6.772;2022-10-16T12:11:33;20.60;99.90
5775;DHT22;2913;51.120;6.772;2022-10-16T12:16:38;20.70;99.90
5775;DHT22;2913;51.120;6.772;2022-10-16T12:21:36;20.70;99.90
5775;DHT22;2913;51.120;6.772;2022-10-16T12:24:05;20.60;99.90
5775;DHT22;2913;51.120;6.772;2022-10-16T12:26:38;20.70;99.90
5775;DHT22;2913;51.120;6.772;2022-10-16T12:29:44;20.80;99.90
5775;DHT22;2913;51.120;6.772;2022-10-16T12:34:55;21.00;99.90
5775;DHT22;2913;51.120;6.772;2022-10-16T12:37:26;20.80;99.90
5775;DHT22;2913;51.120;6.772;2022-10-16T12:39:54;20.90;99.90
5775;DHT22;2913;51.120;6.772;2022-10-16T12:44:53;20.80;99.90
5775;DHT22;2913;51.120;6.772;2022-10-16T12:47:37;20.80;99.90
5775;DHT22;2913;51.120;6.772;2022-10-16T12:50:22;20.90;99.90
5775;DHT22;2913;51.120;6.772;2022-10-16T12:52:48;20.80;99.90
5775;DHT22;2913;51.120;6.772;2022-10-16T12:55:19;20.80;99.90
5775;DHT22;2913;51.120;6.772;2022-10-16T12:58:00;20.90;99.90
5775;DHT22;2913;51.120;6.772;2022-10-16T13:00:56;21.00;99.90
5775;DHT22;2913;51.120;6.772;2022-10-16T13:12:04;21.40;99.90
5775;DHT22;2913;51.120;6.772;2022-10-16T13:15:00;21.40;99.90
5775;DHT22;2913;51.120;6.772;2022-10-16T13:17:56;21.40;99.90
5775;DHT22;2913;51.120;6.772;2022-10-16T13:26:20;21.40;99.90
5775;DHT22;2913;51.120;6.772;2022-10-16T13:28:50;21.30;99.90
5775;DHT22;2913;51.120;6.772;2022-10-16T13:31:19;21.40;99.90
5775;DHT22;2913;51.120;6.772;2022-10-16T13:33:51;21.40;99.90
5775;DHT22;2913;51.120;6.772;2022-10-16T13:36:55;21.40;99.90
5775;DHT22;2913;51.120;6.772;2022-10-16T13:39:29;21.50;99.90
5775;DHT22;2913;51.120;6.772;2022-10-16T13:42:09;21.50;99.90
5775;DHT22;2913;51.120;6.772;2022-10-16T13:44:44;21.60;99.90
5775;DHT22;2913;51.120;6.772;2022-10-16T13:47:27;21.50;99.90
5775;DHT22;2913;51.120;6.772;2022-10-16T13:50:14;21.30;97.70
5775;DHT22;2913;51.120;6.772;2022-10-16T13:52:43;21.30;97.70
5775;DHT22;2913;51.120;6.772;2022-10-16T13:57:37;21.20;97.00
5775;DHT22;2913;51.120;6.772;2022-10-16T14:00:05;21.20;97.00
5775;DHT22;2913;51.120;6.772;2022-10-16T14:02:44;21.20;97.60
5775;DHT22;2913;51.120;6.772;2022-10-16T14:05:10;21.00;97.10
5775;DHT22;2913;51.120;6.772;2022-10-16T14:07:39;20.90;97.80
5775;DHT22;2913;51.120;6.772;2022-10-16T14:10:18;20.90;98.70
5775;DHT22;2913;51.120;6.772;2022-10-16T14:12:59;20.90;99.90
5775;DHT22;2913;51.120;6.772;2022-10-16T14:15:26;21.00;99.90
5775;DHT22;2913;51.120;6.772;2022-10-16T14:17:55;21.00;99.90
5775;DHT22;2913;51.120;6.772;2022-10-16T14:20:26;21.00;99.90
5775;DHT22;2913;51.120;6.772;2022-10-16T14:23:03;20.90;99.90
5775;DHT22;2913;51.120;6.772;2022-10-16T14:25:34;20.90;99.00
5775;DHT22;2913;51.120;6.772;2022-10-16T14:28:22;20.80;98.60
5775;DHT22;2913;51.120;6.772;2022-10-16T14:30:58;20.90;99.50
5775;DHT22;2913;51.120;6.772;2022-10-16T14:38:29;20.90;99.90
5775;DHT22;2913;51.120;6.772;2022-10-16T14:40:57;20.90;99.90
5775;DHT22;2913;51.120;6.772;2022-10-16T14:45:57;20.80;99.90
5775;DHT22;2913;51.120;6.772;2022-10-16T14:48:23;20.70;99.90
5775;DHT22;2913;51.120;6.772;2022-10-16T14:50:49;20.70;99.90
5775;DHT22;2913;51.120;6.772;2022-10-16T14:53:15;20.70;99.90
5775;DHT22;2913;51.120;6.772;2022-10-16T14:55:42;20.70;99.90
5775;DHT22;2913;51.120;6.772;2022-10-16T14:58:21;20.60;99.90
5775;DHT22;2913;51.120;6.772;2022-10-16T15:00:49;20.60;99.90
5775;DHT22;2913;51.120;6.772;2022-10-16T15:03:15;20.60;99.90
5775;DHT22;2913;51.120;6.772;2022-10-16T15:05:43;20.60;99.90
5775;DHT22;2913;51.120;6.772;2022-10-16T15:08:11;20.50;99.90
5775;DHT22;2913;51.120;6.772;2022-10-16T15:10:42;20.50;99.90
5775;DHT22;2913;51.120;6.772;2022-10-16T15:13:12;20.40;99.90
5775;DHT22;2913;51.120;6.772;2022-10-16T15:15:43;20.40;99.90
5775;DHT22;2913;51.120;6.772;2022-10-16T15:18:08;20.30;99.90
5775;DHT22;2913;51.120;6.772;2022-10-16T15:20:35;20.20;99.90
5775;DHT22;2913;51.120;6.772;2022-10-16T15:23:14;20.10;99.90
5775;DHT22;2913;51.120;6.772;2022-10-16T15:25:51;20.00;99.90
5775;DHT22;2913;51.120;6.772;2022-10-16T15:28:18;20.00;99.90
5775;DHT22;2913;51.120;6.772;2022-10-16T15:30:45;20.00;99.90
5775;DHT22;2913;51.120;6.772;2022-10-16T15:33:18;20.00;99.90
5775;DHT22;2913;51.120;6.772;2022-10-16T15:35:49;19.90;99.90
5775;DHT22;2913;51.120;6.772;2022-10-16T15:38:15;19.90;99.90
5775;DHT22;2913;51.120;6.772;2022-10-16T15:40:44;19.90;99.90
5775;DHT22;2913;51.120;6.772;2022-10-16T15:43:12;19.80;99.90
5775;DHT22;2913;51.120;6.772;2022-10-16T15:45:38;19.80;99.90
5775;DHT22;2913;51.120;6.772;2022-10-16T15:48:03;19.70;99.90
5775;DHT22;2913;51.120;6.772;2022-10-16T15:50:32;19.70;99.90
5775;DHT22;2913;51.120;6.772;2022-10-16T15:52:57;19.60;99.90
5775;DHT22;2913;51.120;6.772;2022-10-16T15:55:23;19.60;99.90
5775;DHT22;2913;51.120;6.772;2022-10-16T15:57:52;19.50;99.90
5775;DHT22;2913;51.120;6.772;2022-10-16T16:00:20;19.40;99.90
5775;DHT22;2913;51.120;6.772;2022-10-16T16:02:53;19.40;99.90
5775;DHT22;2913;51.120;6.772;2022-10-16T16:05:20;19.40;99.90
5775;DHT22;2913;51.120;6.772;2022-10-16T16:07:46;19.40;99.90
5775;DHT22;2913;51.120;6.772;2022-10-16T16:10:17;19.30;99.90
5775;DHT22;2913;51.120;6.772;2022-10-16T16:12:42;19.40;99.90
5775;DHT22;2913;51.120;6.772;2022-10-16T16:15:09;19.40;99.90
5775;DHT22;2913;51.120;6.772;2022-10-16T16:17:37;19.30;99.90
5775;DHT22;2913;51.120;6.772;2022-10-16T16:20:04;19.30;99.90
5775;DHT22;2913;51.120;6.772;2022-10-16T16:22:30;19.20;99.90
5775;DHT22;2913;51.120;6.772;2022-10-16T16:24:58;19.20;99.90
5775;DHT22;2913;51.120;6.772;2022-10-16T16:27:24;19.10;99.90
5775;DHT22;2913;51.120;6.772;2022-10-16T16:29:50;19.00;99.90
5775;DHT22;2913;51.120;6.772;2022-10-16T16:32:16;19.00;99.90
5775;DHT22;2913;51.120;6.772;2022-10-16T16:34:44;19.00;99.90
5775;DHT22;2913;51.120;6.772;2022-10-16T16:37:12;19.00;99.90
5775;DHT22;2913;51.120;6.772;2022-10-16T16:39:40;18.90;99.90
5775;DHT22;2913;51.120;6.772;2022-10-16T16:42:05;18.90;99.90
5775;DHT22;2913;51.120;6.772;2022-10-16T16:44:35;18.80;99.90
5775;DHT22;2913;51.120;6.772;2022-10-16T16:47:02;18.80;99.90
5775;DHT22;2913;51.120;6.772;2022-10-16T16:49:28;18.80;99.90
5775;DHT22;2913;51.120;6.772;2022-10-16T16:51:54;18.80;99.90
5775;DHT22;2913;51.120;6.772;2022-10-16T16:54:20;18.70;99.90
5775;DHT22;2913;51.120;6.772;2022-10-16T16:56:48;18.70;99.90
5775;DHT22;2913;51.120;6.772;2022-10-16T16:59:18;18.70;99.90
5775;DHT22;2913;51.120;6.772;2022-10-16T17:01:45;18.70;99.90
5775;DHT22;2913;51.120;6.772;2022-10-16T17:04:12;18.60;99.90
5775;DHT22;2913;51.120;6.772;2022-10-16T17:06:38;18.60;99.90
5775;DHT22;2913;51.120;6.772;2022-10-16T17:09:06;18.50;99.90
5775;DHT22;2913;51.120;6.772;2022-10-16T17:11:33;18.50;99.90
5775;DHT22;2913;51.120;6.772;2022-10-16T17:13:59;18.50;99.90
5775;DHT22;2913;51.120;6.772;2022-10-16T17:16:29;18.50;99.90
5775;DHT22;2913;51.120;6.772;2022-10-16T17:18:54;18.50;99.90
5775;DHT22;2913;51.120;6.772;2022-10-16T17:21:20;18.40;99.90
5775;DHT22;2913;51.120;6.772;2022-10-16T17:23:50;18.40;99.90
5775;DHT22;2913;51.120;6.772;2022-10-16T17:26:16;18.40;99.90
5775;DHT22;2913;51.120;6.772;2022-10-16T17:28:42;18.40;99.90
5775;DHT22;2913;51.120;6.772;2022-10-16T17:31:16;18.40;99.90
5775;DHT22;2913;51.120;6.772;2022-10-16T17:33:43;18.40;99.90
5775;DHT22;2913;51.120;6.772;2022-10-16T17:36:12;18.40;99.90
5775;DHT22;2913;51.120;6.772;2022-10-16T17:38:41;18.40;99.90
5775;DHT22;2913;51.120;6.772;2022-10-16T17:43:44;18.40;99.90
5775;DHT22;2913;51.120;6.772;2022-10-16T17:46:10;18.40;99.90
5775;DHT22;2913;51.120;6.772;2022-10-16T17:48:46;18.40;99.90
5775;DHT22;2913;51.120;6.772;2022-10-16T17:51:15;18.40;99.90
5775;DHT22;2913;51.120;6.772;2022-10-16T17:53:49;18.40;99.90
5775;DHT22;2913;51.120;6.772;2022-10-16T17:56:15;18.40;99.90
5775;DHT22;2913;51.120;6.772;2022-10-16T17:58:41;18.40;99.90
5775;DHT22;2913;51.120;6.772;2022-10-16T18:01:14;18.40;99.90
5775;DHT22;2913;51.120;6.772;2022-10-16T18:03:40;18.30;99.90
5775;DHT22;2913;51.120;6.772;2022-10-16T18:06:05;18.30;99.90
5775;DHT22;2913;51.120;6.772;2022-10-16T18:08:31;18.30;99.90
5775;DHT22;2913;51.120;6.772;2022-10-16T18:10:57;18.30;99.90
5775;DHT22;2913;51.120;6.772;2022-10-16T18:13:22;18.30;99.90
5775;DHT22;2913;51.120;6.772;2022-10-16T18:16:01;18.30;99.90
5775;DHT22;2913;51.120;6.772;2022-10-16T18:18:27;18.30;99.90
5775;DHT22;2913;51.120;6.772;2022-10-16T18:20:58;18.30;99.90
5775;DHT22;2913;51.120;6.772;2022-10-16T18:23:25;18.30;99.90